Mendon - 24 Hour Table
Date & TimeSolar
Radiation
(W/m²)
Wind
Speed
(mph)
Wind
Direction
(degrees)
Air
Temperature
(°F)
Relative
Humidity
(%)
Precipitation
(inches)
2019/12/15 16:00 42 0.0 303 20.9 79 0.00
2019/12/15 15:00 173 0.3 154 20.9 77 0.00
2019/12/15 14:00 190 0.0 145 22.5 77 0.00
2019/12/15 13:00 222 0.1 152 21.9 69 0.00
2019/12/15 12:00 260 0.1 146 22.4 72 0.00
2019/12/15 11:00 303 0.5 165 21.6 70 0.00
2019/12/15 10:00 151 0.0 201 16.5 78 0.00
2019/12/15 09:00 23 0.0 280 8.9 94 0.00
2019/12/15 08:00 2 0.0 225 8.7 90 0.00
2019/12/15 07:00 0 0.0 287 9.8 90 0.00
2019/12/15 06:00 0 0.0 272 9.3 92 0.00
2019/12/15 05:00 0 0.0 251 10.3 92 0.00
2019/12/15 04:00 0 0.0 305 10.9 94 0.00
2019/12/15 03:00 0 0.0 266 12.5 93 0.00
2019/12/15 02:00 0 0.0 324 15.1 90 0.00
2019/12/15 01:00 0 0.0 296 17.4 92 0.00
2019/12/15 00:00 0 0.0 302 20.3 90 0.00
2019/12/14 23:00 0 0.0 309 24.8 89 0.00
2019/12/14 22:00 0 0.0 185 26.3 90 0.00
2019/12/14 21:00 0 0.0 225 25.6 89 0.00
2019/12/14 20:00 0 0.0 284 27.1 89 0.00
2019/12/14 19:00 0 0.0 331 28.5 92 0.00
2019/12/14 18:00 0 0.0 255 29.5 90 0.00
2019/12/14 17:00 10 0.0 334 31.5 85 0.00